sensor_id;sensor_type;location;lat;lon;timestamp;P1;durP1;ratioP1;P2;durP2;ratioP2
11618;SDS011;5865;48.776;9.280;2022-09-25T00:01:42;13.40;;;12.10;;
11618;SDS011;5865;48.776;9.280;2022-09-25T00:04:11;15.73;;;13.10;;
11618;SDS011;5865;48.776;9.280;2022-09-25T00:06:38;13.70;;;12.13;;
11618;SDS011;5865;48.776;9.280;2022-09-25T00:09:05;14.80;;;13.30;;
11618;SDS011;5865;48.776;9.280;2022-09-25T00:11:33;13.80;;;12.40;;
11618;SDS011;5865;48.776;9.280;2022-09-25T00:14:02;15.07;;;12.73;;
11618;SDS011;5865;48.776;9.280;2022-09-25T00:16:30;15.73;;;12.97;;
11618;SDS011;5865;48.776;9.280;2022-09-25T00:18:57;14.13;;;12.63;;
11618;SDS011;5865;48.776;9.280;2022-09-25T00:21:43;16.43;;;12.90;;
11618;SDS011;5865;48.776;9.280;2022-09-25T00:24:11;14.37;;;12.63;;
11618;SDS011;5865;48.776;9.280;2022-09-25T00:26:40;14.87;;;13.27;;
11618;SDS011;5865;48.776;9.280;2022-09-25T00:29:08;16.60;;;13.20;;
11618;SDS011;5865;48.776;9.280;2022-09-25T00:31:40;13.97;;;12.10;;
11618;SDS011;5865;48.776;9.280;2022-09-25T00:34:07;15.83;;;13.53;;
11618;SDS011;5865;48.776;9.280;2022-09-25T00:36:34;17.03;;;13.20;;
11618;SDS011;5865;48.776;9.280;2022-09-25T00:39:03;17.07;;;13.63;;
11618;SDS011;5865;48.776;9.280;2022-09-25T00:41:30;14.90;;;13.30;;
11618;SDS011;5865;48.776;9.280;2022-09-25T00:43:58;14.00;;;12.50;;
11618;SDS011;5865;48.776;9.280;2022-09-25T00:46:26;13.73;;;12.33;;
11618;SDS011;5865;48.776;9.280;2022-09-25T00:48:58;13.40;;;12.10;;
11618;SDS011;5865;48.776;9.280;2022-09-25T00:51:28;14.97;;;12.27;;
11618;SDS011;5865;48.776;9.280;2022-09-25T00:53:59;11.70;;;10.50;;
11618;SDS011;5865;48.776;9.280;2022-09-25T00:56:31;13.17;;;11.73;;
11618;SDS011;5865;48.776;9.280;2022-09-25T00:59:00;12.53;;;11.23;;
11618;SDS011;5865;48.776;9.280;2022-09-25T01:01:28;13.40;;;12.00;;
11618;SDS011;5865;48.776;9.280;2022-09-25T01:03:55;13.83;;;12.23;;
11618;SDS011;5865;48.776;9.280;2022-09-25T01:06:22;14.03;;;12.10;;
11618;SDS011;5865;48.776;9.280;2022-09-25T01:08:51;12.10;;;10.90;;
11618;SDS011;5865;48.776;9.280;2022-09-25T01:11:18;16.03;;;13.47;;
11618;SDS011;5865;48.776;9.280;2022-09-25T01:13:47;14.00;;;12.50;;
11618;SDS011;5865;48.776;9.280;2022-09-25T01:16:14;18.40;;;14.40;;
11618;SDS011;5865;48.776;9.280;2022-09-25T01:18:51;15.67;;;13.40;;
11618;SDS011;5865;48.776;9.280;2022-09-25T01:21:32;16.57;;;14.10;;
11618;SDS011;5865;48.776;9.280;2022-09-25T01:30:10;17.70;;;14.10;;
11618;SDS011;5865;48.776;9.280;2022-09-25T01:32:44;19.97;;;15.27;;
11618;SDS011;5865;48.776;9.280;2022-09-25T01:35:23;19.63;;;15.07;;
11618;SDS011;5865;48.776;9.280;2022-09-25T01:38:01;15.90;;;13.43;;
11618;SDS011;5865;48.776;9.280;2022-09-25T01:40:34;17.20;;;14.13;;
11618;SDS011;5865;48.776;9.280;2022-09-25T01:43:06;16.90;;;13.60;;
11618;SDS011;5865;48.776;9.280;2022-09-25T01:45:39;18.53;;;15.07;;
11618;SDS011;5865;48.776;9.280;2022-09-25T01:48:11;16.50;;;13.90;;
11618;SDS011;5865;48.776;9.280;2022-09-25T01:50:44;17.33;;;14.13;;
11618;SDS011;5865;48.776;9.280;2022-09-25T01:53:15;16.33;;;13.97;;
11618;SDS011;5865;48.776;9.280;2022-09-25T01:55:47;18.20;;;14.67;;
11618;SDS011;5865;48.776;9.280;2022-09-25T01:58:17;16.83;;;13.87;;
11618;SDS011;5865;48.776;9.280;2022-09-25T02:00:52;19.53;;;15.23;;
11618;SDS011;5865;48.776;9.280;2022-09-25T02:03:24;19.30;;;15.73;;
11618;SDS011;5865;48.776;9.280;2022-09-25T02:05:56;18.97;;;15.73;;
11618;SDS011;5865;48.776;9.280;2022-09-25T02:08:27;20.10;;;15.43;;
11618;SDS011;5865;48.776;9.280;2022-09-25T02:10:57;19.57;;;15.50;;
11618;SDS011;5865;48.776;9.280;2022-09-25T02:13:26;22.57;;;16.90;;
11618;SDS011;5865;48.776;9.280;2022-09-25T02:16:03;21.50;;;16.33;;
11618;SDS011;5865;48.776;9.280;2022-09-25T02:18:34;22.93;;;17.13;;
11618;SDS011;5865;48.776;9.280;2022-09-25T02:21:21;18.10;;;15.10;;
11618;SDS011;5865;48.776;9.280;2022-09-25T02:23:55;20.37;;;16.17;;
11618;SDS011;5865;48.776;9.280;2022-09-25T02:26:29;20.90;;;15.00;;
11618;SDS011;5865;48.776;9.280;2022-09-25T02:28:58;17.23;;;14.50;;
11618;SDS011;5865;48.776;9.280;2022-09-25T02:31:28;19.90;;;16.10;;
11618;SDS011;5865;48.776;9.280;2022-09-25T02:34:00;20.17;;;16.20;;
11618;SDS011;5865;48.776;9.280;2022-09-25T02:36:27;18.00;;;15.57;;
11618;SDS011;5865;48.776;9.280;2022-09-25T02:38:56;19.40;;;15.23;;
11618;SDS011;5865;48.776;9.280;2022-09-25T02:41:27;18.23;;;15.10;;
11618;SDS011;5865;48.776;9.280;2022-09-25T02:44:07;18.50;;;14.90;;
11618;SDS011;5865;48.776;9.280;2022-09-25T02:46:43;19.17;;;14.23;;
11618;SDS011;5865;48.776;9.280;2022-09-25T02:49:20;17.80;;;14.20;;
11618;SDS011;5865;48.776;9.280;2022-09-25T02:51:55;19.17;;;14.50;;
11618;SDS011;5865;48.776;9.280;2022-09-25T02:54:30;17.87;;;14.20;;
11618;SDS011;5865;48.776;9.280;2022-09-25T02:57:00;15.83;;;13.03;;
11618;SDS011;5865;48.776;9.280;2022-09-25T02:59:32;15.87;;;13.23;;
11618;SDS011;5865;48.776;9.280;2022-09-25T03:02:03;17.57;;;13.87;;
11618;SDS011;5865;48.776;9.280;2022-09-25T03:04:30;15.80;;;13.20;;
11618;SDS011;5865;48.776;9.280;2022-09-25T03:07:01;16.03;;;13.10;;
11618;SDS011;5865;48.776;9.280;2022-09-25T03:09:29;17.63;;;13.03;;
11618;SDS011;5865;48.776;9.280;2022-09-25T03:12:00;15.50;;;12.87;;
11618;SDS011;5865;48.776;9.280;2022-09-25T03:14:28;15.93;;;12.73;;
11618;SDS011;5865;48.776;9.280;2022-09-25T03:16:55;14.43;;;11.80;;
11618;SDS011;5865;48.776;9.280;2022-09-25T03:19:25;15.33;;;12.10;;
11618;SDS011;5865;48.776;9.280;2022-09-25T03:21:54;14.37;;;11.63;;
11618;SDS011;5865;48.776;9.280;2022-09-25T03:24:21;16.17;;;12.67;;
11618;SDS011;5865;48.776;9.280;2022-09-25T03:26:48;15.17;;;12.53;;
11618;SDS011;5865;48.776;9.280;2022-09-25T03:29:16;14.00;;;12.40;;
11618;SDS011;5865;48.776;9.280;2022-09-25T03:31:43;14.37;;;11.90;;
11618;SDS011;5865;48.776;9.280;2022-09-25T03:34:10;19.17;;;14.90;;
11618;SDS011;5865;48.776;9.280;2022-09-25T03:36:40;17.50;;;14.23;;
11618;SDS011;5865;48.776;9.280;2022-09-25T03:39:08;16.90;;;13.77;;
11618;SDS011;5865;48.776;9.280;2022-09-25T03:41:35;20.80;;;15.67;;
11618;SDS011;5865;48.776;9.280;2022-09-25T03:44:03;19.83;;;15.10;;
11618;SDS011;5865;48.776;9.280;2022-09-25T03:46:30;20.27;;;14.80;;
11618;SDS011;5865;48.776;9.280;2022-09-25T03:48:59;17.97;;;14.83;;
11618;SDS011;5865;48.776;9.280;2022-09-25T03:51:27;19.70;;;15.40;;
11618;SDS011;5865;48.776;9.280;2022-09-25T03:53:56;19.60;;;15.53;;
11618;SDS011;5865;48.776;9.280;2022-09-25T03:56:24;22.23;;;16.23;;
11618;SDS011;5865;48.776;9.280;2022-09-25T03:58:53;21.53;;;15.23;;
11618;SDS011;5865;48.776;9.280;2022-09-25T04:01:21;21.53;;;15.40;;
11618;SDS011;5865;48.776;9.280;2022-09-25T04:03:49;20.57;;;15.13;;
11618;SDS011;5865;48.776;9.280;2022-09-25T04:06:18;22.27;;;14.97;;
11618;SDS011;5865;48.776;9.280;2022-09-25T04:08:48;20.17;;;14.47;;
11618;SDS011;5865;48.776;9.280;2022-09-25T04:11:17;21.13;;;14.77;;
11618;SDS011;5865;48.776;9.280;2022-09-25T04:13:45;19.53;;;14.00;;
11618;SDS011;5865;48.776;9.280;2022-09-25T04:16:13;17.27;;;12.67;;
11618;SDS011;5865;48.776;9.280;2022-09-25T04:18:44;16.57;;;11.53;;
11618;SDS011;5865;48.776;9.280;2022-09-25T04:21:12;17.37;;;11.87;;
11618;SDS011;5865;48.776;9.280;2022-09-25T04:23:39;12.33;;;9.93;;
11618;SDS011;5865;48.776;9.280;2022-09-25T04:26:28;13.17;;;10.20;;
11618;SDS011;5865;48.776;9.280;2022-09-25T04:28:55;11.20;;;9.03;;
11618;SDS011;5865;48.776;9.280;2022-09-25T04:31:25;10.50;;;8.47;;
11618;SDS011;5865;48.776;9.280;2022-09-25T04:33:52;10.73;;;8.30;;
11618;SDS011;5865;48.776;9.280;2022-09-25T04:36:18;8.50;;;7.07;;
11618;SDS011;5865;48.776;9.280;2022-09-25T04:38:45;8.20;;;6.93;;
11618;SDS011;5865;48.776;9.280;2022-09-25T04:41:13;8.00;;;7.10;;
11618;SDS011;5865;48.776;9.280;2022-09-25T04:43:43;8.03;;;6.83;;
11618;SDS011;5865;48.776;9.280;2022-09-25T04:46:10;7.70;;;6.53;;
11618;SDS011;5865;48.776;9.280;2022-09-25T04:48:38;8.40;;;7.17;;
11618;SDS011;5865;48.776;9.280;2022-09-25T04:51:05;9.50;;;7.30;;
11618;SDS011;5865;48.776;9.280;2022-09-25T04:53:32;7.90;;;7.03;;
11618;SDS011;5865;48.776;9.280;2022-09-25T04:56:00;10.30;;;7.57;;
11618;SDS011;5865;48.776;9.280;2022-09-25T04:58:28;10.47;;;7.87;;
11618;SDS011;5865;48.776;9.280;2022-09-25T05:01:01;11.27;;;8.47;;
11618;SDS011;5865;48.776;9.280;2022-09-25T05:03:28;11.40;;;8.60;;
11618;SDS011;5865;48.776;9.280;2022-09-25T05:05:55;12.93;;;9.50;;
11618;SDS011;5865;48.776;9.280;2022-09-25T05:08:23;11.73;;;9.50;;
11618;SDS011;5865;48.776;9.280;2022-09-25T05:10:51;12.60;;;9.20;;
11618;SDS011;5865;48.776;9.280;2022-09-25T05:13:17;12.10;;;9.07;;
11618;SDS011;5865;48.776;9.280;2022-09-25T05:15:45;12.93;;;9.60;;
11618;SDS011;5865;48.776;9.280;2022-09-25T05:18:14;15.03;;;10.50;;
11618;SDS011;5865;48.776;9.280;2022-09-25T05:20:42;15.03;;;10.83;;
11618;SDS011;5865;48.776;9.280;2022-09-25T05:23:09;15.63;;;11.03;;
11618;SDS011;5865;48.776;9.280;2022-09-25T05:25:36;15.70;;;10.50;;
11618;SDS011;5865;48.776;9.280;2022-09-25T05:28:03;14.20;;;9.33;;
11618;SDS011;5865;48.776;9.280;2022-09-25T05:30:32;16.50;;;11.33;;
11618;SDS011;5865;48.776;9.280;2022-09-25T05:32:59;15.40;;;10.50;;
11618;SDS011;5865;48.776;9.280;2022-09-25T05:35:29;15.77;;;10.43;;
11618;SDS011;5865;48.776;9.280;2022-09-25T05:37:57;15.87;;;10.33;;
11618;SDS011;5865;48.776;9.280;2022-09-25T05:40:25;14.73;;;10.47;;
11618;SDS011;5865;48.776;9.280;2022-09-25T05:42:52;16.27;;;10.57;;
11618;SDS011;5865;48.776;9.280;2022-09-25T05:45:20;17.50;;;10.63;;
11618;SDS011;5865;48.776;9.280;2022-09-25T05:47:48;14.33;;;10.47;;
11618;SDS011;5865;48.776;9.280;2022-09-25T05:50:25;14.40;;;10.30;;
11618;SDS011;5865;48.776;9.280;2022-09-25T05:52:55;16.13;;;10.53;;
11618;SDS011;5865;48.776;9.280;2022-09-25T05:55:23;15.37;;;9.90;;
11618;SDS011;5865;48.776;9.280;2022-09-25T05:57:50;15.07;;;10.00;;
11618;SDS011;5865;48.776;9.280;2022-09-25T06:00:17;15.80;;;11.33;;
11618;SDS011;5865;48.776;9.280;2022-09-25T06:02:44;15.80;;;11.40;;
11618;SDS011;5865;48.776;9.280;2022-09-25T06:05:16;14.50;;;10.07;;
11618;SDS011;5865;48.776;9.280;2022-09-25T06:07:42;15.57;;;10.70;;
11618;SDS011;5865;48.776;9.280;2022-09-25T06:10:11;15.43;;;10.10;;
11618;SDS011;5865;48.776;9.280;2022-09-25T06:12:38;13.07;;;9.60;;
11618;SDS011;5865;48.776;9.280;2022-09-25T06:15:05;12.20;;;9.57;;
11618;SDS011;5865;48.776;9.280;2022-09-25T06:17:32;12.30;;;9.57;;
11618;SDS011;5865;48.776;9.280;2022-09-25T06:19:59;13.43;;;9.70;;
11618;SDS011;5865;48.776;9.280;2022-09-25T06:22:26;12.97;;;9.70;;
11618;SDS011;5865;48.776;9.280;2022-09-25T06:24:54;11.73;;;8.87;;
11618;SDS011;5865;48.776;9.280;2022-09-25T06:27:22;12.40;;;8.90;;
11618;SDS011;5865;48.776;9.280;2022-09-25T06:29:49;12.07;;;9.30;;
11618;SDS011;5865;48.776;9.280;2022-09-25T06:32:16;11.40;;;9.10;;
11618;SDS011;5865;48.776;9.280;2022-09-25T06:34:45;12.13;;;9.07;;
11618;SDS011;5865;48.776;9.280;2022-09-25T06:37:12;13.53;;;9.83;;
11618;SDS011;5865;48.776;9.280;2022-09-25T06:39:39;11.07;;;9.53;;
11618;SDS011;5865;48.776;9.280;2022-09-25T06:42:06;12.30;;;8.67;;
11618;SDS011;5865;48.776;9.280;2022-09-25T06:44:36;11.70;;;9.13;;
11618;SDS011;5865;48.776;9.280;2022-09-25T06:47:03;14.00;;;9.87;;
11618;SDS011;5865;48.776;9.280;2022-09-25T06:49:30;13.00;;;9.63;;
11618;SDS011;5865;48.776;9.280;2022-09-25T06:51:57;12.93;;;9.00;;
11618;SDS011;5865;48.776;9.280;2022-09-25T06:54:26;12.30;;;9.57;;
11618;SDS011;5865;48.776;9.280;2022-09-25T06:56:55;13.37;;;9.77;;
11618;SDS011;5865;48.776;9.280;2022-09-25T06:59:22;12.83;;;9.77;;
11618;SDS011;5865;48.776;9.280;2022-09-25T07:01:51;13.80;;;9.73;;
11618;SDS011;5865;48.776;9.280;2022-09-25T07:04:18;12.80;;;9.90;;
11618;SDS011;5865;48.776;9.280;2022-09-25T07:06:44;12.67;;;9.20;;
11618;SDS011;5865;48.776;9.280;2022-09-25T07:09:12;11.90;;;8.93;;
11618;SDS011;5865;48.776;9.280;2022-09-25T07:11:39;10.60;;;8.80;;
11618;SDS011;5865;48.776;9.280;2022-09-25T07:14:08;11.97;;;9.30;;
11618;SDS011;5865;48.776;9.280;2022-09-25T07:16:35;12.20;;;9.47;;
11618;SDS011;5865;48.776;9.280;2022-09-25T07:19:03;12.40;;;9.80;;
11618;SDS011;5865;48.776;9.280;2022-09-25T07:21:31;10.47;;;8.73;;
11618;SDS011;5865;48.776;9.280;2022-09-25T07:23:58;10.60;;;9.33;;
11618;SDS011;5865;48.776;9.280;2022-09-25T07:26:25;10.00;;;8.73;;
11618;SDS011;5865;48.776;9.280;2022-09-25T07:28:54;11.00;;;8.57;;
11618;SDS011;5865;48.776;9.280;2022-09-25T07:31:24;10.20;;;8.57;;
11618;SDS011;5865;48.776;9.280;2022-09-25T07:33:52;10.37;;;9.03;;
11618;SDS011;5865;48.776;9.280;2022-09-25T07:36:20;10.47;;;8.70;;
11618;SDS011;5865;48.776;9.280;2022-09-25T07:38:48;10.40;;;8.70;;
11618;SDS011;5865;48.776;9.280;2022-09-25T07:41:16;10.60;;;9.20;;
11618;SDS011;5865;48.776;9.280;2022-09-25T07:43:43;9.73;;;8.03;;
11618;SDS011;5865;48.776;9.280;2022-09-25T07:46:11;9.60;;;8.13;;
11618;SDS011;5865;48.776;9.280;2022-09-25T07:48:38;11.13;;;9.13;;
11618;SDS011;5865;48.776;9.280;2022-09-25T07:51:06;12.63;;;9.67;;
11618;SDS011;5865;48.776;9.280;2022-09-25T07:53:35;12.37;;;9.67;;
11618;SDS011;5865;48.776;9.280;2022-09-25T07:56:03;11.03;;;9.10;;
11618;SDS011;5865;48.776;9.280;2022-09-25T07:58:30;11.23;;;9.70;;
11618;SDS011;5865;48.776;9.280;2022-09-25T08:00:58;12.20;;;10.27;;
11618;SDS011;5865;48.776;9.280;2022-09-25T08:03:26;11.10;;;8.87;;
11618;SDS011;5865;48.776;9.280;2022-09-25T08:05:56;12.13;;;9.93;;
11618;SDS011;5865;48.776;9.280;2022-09-25T08:08:24;12.73;;;10.57;;
11618;SDS011;5865;48.776;9.280;2022-09-25T08:10:53;13.67;;;10.50;;
11618;SDS011;5865;48.776;9.280;2022-09-25T08:13:25;13.10;;;10.20;;
11618;SDS011;5865;48.776;9.280;2022-09-25T08:15:53;12.40;;;9.77;;
11618;SDS011;5865;48.776;9.280;2022-09-25T08:18:20;12.33;;;10.53;;
11618;SDS011;5865;48.776;9.280;2022-09-25T08:20:47;13.27;;;11.50;;
11618;SDS011;5865;48.776;9.280;2022-09-25T08:23:14;11.18;;;9.27;;
11618;SDS011;5865;48.776;9.280;2022-09-25T08:25:41;12.90;;;10.03;;
11618;SDS011;5865;48.776;9.280;2022-09-25T08:28:09;11.75;;;10.10;;
11618;SDS011;5865;48.776;9.280;2022-09-25T08:30:36;12.25;;;10.52;;
11618;SDS011;5865;48.776;9.280;2022-09-25T08:33:03;11.00;;;9.77;;
11618;SDS011;5865;48.776;9.280;2022-09-25T08:35:30;10.90;;;9.67;;
11618;SDS011;5865;48.776;9.280;2022-09-25T08:37:57;10.87;;;9.70;;
11618;SDS011;5865;48.776;9.280;2022-09-25T08:40:25;11.93;;;9.30;;
11618;SDS011;5865;48.776;9.280;2022-09-25T08:42:55;9.82;;;8.82;;
11618;SDS011;5865;48.776;9.280;2022-09-25T08:45:25;12.93;;;9.02;;
11618;SDS011;5865;48.776;9.280;2022-09-25T08:48:17;12.35;;;10.10;;
11618;SDS011;5865;48.776;9.280;2022-09-25T08:51:04;11.52;;;10.00;;
11618;SDS011;5865;48.776;9.280;2022-09-25T08:53:33;10.88;;;9.70;;
11618;SDS011;5865;48.776;9.280;2022-09-25T08:56:01;12.35;;;9.95;;
11618;SDS011;5865;48.776;9.280;2022-09-25T08:58:44;11.43;;;10.23;;
11618;SDS011;5865;48.776;9.280;2022-09-25T09:01:17;11.05;;;9.35;;
11618;SDS011;5865;48.776;9.280;2022-09-25T09:03:49;12.45;;;9.30;;
11618;SDS011;5865;48.776;9.280;2022-09-25T09:06:23;9.82;;;8.52;;
11618;SDS011;5865;48.776;9.280;2022-09-25T09:08:53;10.88;;;9.27;;
11618;SDS011;5865;48.776;9.280;2022-09-25T09:11:24;10.90;;;8.93;;
11618;SDS011;5865;48.776;9.280;2022-09-25T09:13:57;10.30;;;8.38;;
11618;SDS011;5865;48.776;9.280;2022-09-25T09:16:31;11.77;;;8.75;;
11618;SDS011;5865;48.776;9.280;2022-09-25T09:19:05;8.40;;;7.50;;
11618;SDS011;5865;48.776;9.280;2022-09-25T09:21:35;9.55;;;8.45;;
11618;SDS011;5865;48.776;9.280;2022-09-25T09:24:10;8.43;;;7.63;;
11618;SDS011;5865;48.776;9.280;2022-09-25T09:26:53;8.60;;;7.70;;
11618;SDS011;5865;48.776;9.280;2022-09-25T09:29:37;6.72;;;6.03;;
11618;SDS011;5865;48.776;9.280;2022-09-25T09:32:21;6.78;;;6.07;;
11618;SDS011;5865;48.776;9.280;2022-09-25T09:34:58;7.63;;;6.60;;
11618;SDS011;5865;48.776;9.280;2022-09-25T09:37:37;7.63;;;6.78;;
11618;SDS011;5865;48.776;9.280;2022-09-25T09:40:31;7.32;;;6.10;;
11618;SDS011;5865;48.776;9.280;2022-09-25T09:43:13;9.73;;;7.38;;
11618;SDS011;5865;48.776;9.280;2022-09-25T09:45:54;7.00;;;6.25;;
11618;SDS011;5865;48.776;9.280;2022-09-25T09:48:30;8.85;;;6.60;;
11618;SDS011;5865;48.776;9.280;2022-09-25T09:51:06;7.05;;;6.10;;
11618;SDS011;5865;48.776;9.280;2022-09-25T09:53:38;6.47;;;5.65;;
11618;SDS011;5865;48.776;9.280;2022-09-25T09:56:11;6.55;;;5.60;;
11618;SDS011;5865;48.776;9.280;2022-09-25T09:58:43;5.82;;;5.28;;
11618;SDS011;5865;48.776;9.280;2022-09-25T10:01:13;5.85;;;5.07;;
11618;SDS011;5865;48.776;9.280;2022-09-25T10:03:43;5.85;;;4.85;;
11618;SDS011;5865;48.776;9.280;2022-09-25T10:06:13;5.90;;;5.30;;
11618;SDS011;5865;48.776;9.280;2022-09-25T10:08:42;5.60;;;5.07;;
11618;SDS011;5865;48.776;9.280;2022-09-25T10:11:11;6.00;;;5.28;;
11618;SDS011;5865;48.776;9.280;2022-09-25T10:13:41;5.97;;;5.10;;
11618;SDS011;5865;48.776;9.280;2022-09-25T10:16:10;6.63;;;5.93;;
11618;SDS011;5865;48.776;9.280;2022-09-25T10:18:41;6.45;;;5.85;;
11618;SDS011;5865;48.776;9.280;2022-09-25T10:21:15;7.68;;;5.57;;
11618;SDS011;5865;48.776;9.280;2022-09-25T10:23:46;6.97;;;5.90;;
11618;SDS011;5865;48.776;9.280;2022-09-25T10:26:25;7.88;;;6.20;;
11618;SDS011;5865;48.776;9.280;2022-09-25T10:28:53;7.30;;;6.05;;
11618;SDS011;5865;48.776;9.280;2022-09-25T10:31:22;6.88;;;5.93;;
11618;SDS011;5865;48.776;9.280;2022-09-25T10:34:02;6.90;;;6.07;;
11618;SDS011;5865;48.776;9.280;2022-09-25T10:36:31;8.02;;;6.50;;
11618;SDS011;5865;48.776;9.280;2022-09-25T10:39:03;7.57;;;5.80;;
11618;SDS011;5865;48.776;9.280;2022-09-25T10:41:39;7.07;;;6.18;;
11618;SDS011;5865;48.776;9.280;2022-09-25T10:44:18;8.90;;;6.68;;
11618;SDS011;5865;48.776;9.280;2022-09-25T10:46:46;7.35;;;5.60;;
11618;SDS011;5865;48.776;9.280;2022-09-25T10:49:32;7.28;;;5.95;;
11618;SDS011;5865;48.776;9.280;2022-09-25T10:52:40;6.68;;;5.30;;
11618;SDS011;5865;48.776;9.280;2022-09-25T10:55:18;7.55;;;6.75;;
11618;SDS011;5865;48.776;9.280;2022-09-25T10:57:51;6.20;;;5.60;;
11618;SDS011;5865;48.776;9.280;2022-09-25T11:00:22;6.68;;;5.65;;
11618;SDS011;5865;48.776;9.280;2022-09-25T11:02:51;7.60;;;5.57;;
11618;SDS011;5865;48.776;9.280;2022-09-25T11:05:25;7.00;;;5.78;;
11618;SDS011;5865;48.776;9.280;2022-09-25T11:07:55;6.53;;;5.60;;
11618;SDS011;5865;48.776;9.280;2022-09-25T11:10:25;5.90;;;5.38;;
11618;SDS011;5865;48.776;9.280;2022-09-25T11:12:54;6.72;;;5.82;;
11618;SDS011;5865;48.776;9.280;2022-09-25T11:15:22;7.15;;;6.10;;
11618;SDS011;5865;48.776;9.280;2022-09-25T11:17:52;8.52;;;7.00;;
11618;SDS011;5865;48.776;9.280;2022-09-25T11:20:22;8.18;;;6.65;;
11618;SDS011;5865;48.776;9.280;2022-09-25T11:22:58;8.45;;;7.28;;
11618;SDS011;5865;48.776;9.280;2022-09-25T11:25:33;8.95;;;8.05;;
11618;SDS011;5865;48.776;9.280;2022-09-25T11:28:09;8.85;;;7.95;;
11618;SDS011;5865;48.776;9.280;2022-09-25T11:30:43;12.05;;;9.30;;
11618;SDS011;5865;48.776;9.280;2022-09-25T11:33:17;15.68;;;10.95;;
11618;SDS011;5865;48.776;9.280;2022-09-25T11:35:57;12.63;;;9.52;;
11618;SDS011;5865;48.776;9.280;2022-09-25T11:38:30;11.90;;;10.70;;
11618;SDS011;5865;48.776;9.280;2022-09-25T11:41:22;12.98;;;10.43;;
11618;SDS011;5865;48.776;9.280;2022-09-25T11:43:56;13.33;;;11.17;;
11618;SDS011;5865;48.776;9.280;2022-09-25T11:46:41;14.27;;;11.07;;
11618;SDS011;5865;48.776;9.280;2022-09-25T11:49:17;12.20;;;10.47;;
11618;SDS011;5865;48.776;9.280;2022-09-25T11:52:00;15.52;;;12.00;;
11618;SDS011;5865;48.776;9.280;2022-09-25T11:54:44;13.97;;;10.90;;
11618;SDS011;5865;48.776;9.280;2022-09-25T11:57:21;13.27;;;10.87;;
11618;SDS011;5865;48.776;9.280;2022-09-25T11:59:57;12.68;;;10.77;;
11618;SDS011;5865;48.776;9.280;2022-09-25T12:02:43;12.02;;;9.98;;
11618;SDS011;5865;48.776;9.280;2022-09-25T12:05:29;13.13;;;10.27;;
11618;SDS011;5865;48.776;9.280;2022-09-25T12:08:24;13.32;;;10.88;;
11618;SDS011;5865;48.776;9.280;2022-09-25T12:11:03;13.80;;;10.48;;
11618;SDS011;5865;48.776;9.280;2022-09-25T12:13:40;12.27;;;10.35;;
11618;SDS011;5865;48.776;9.280;2022-09-25T12:16:15;13.40;;;10.32;;
11618;SDS011;5865;48.776;9.280;2022-09-25T12:18:50;13.98;;;10.52;;
11618;SDS011;5865;48.776;9.280;2022-09-25T12:21:25;10.90;;;9.40;;
11618;SDS011;5865;48.776;9.280;2022-09-25T12:24:00;9.55;;;8.55;;
11618;SDS011;5865;48.776;9.280;2022-09-25T12:26:35;12.50;;;10.02;;
11618;SDS011;5865;48.776;9.280;2022-09-25T12:29:15;11.40;;;9.60;;
11618;SDS011;5865;48.776;9.280;2022-09-25T12:31:51;10.68;;;9.57;;
11618;SDS011;5865;48.776;9.280;2022-09-25T12:34:27;10.32;;;9.30;;
11618;SDS011;5865;48.776;9.280;2022-09-25T12:37:17;11.05;;;8.88;;
11618;SDS011;5865;48.776;9.280;2022-09-25T12:39:50;11.40;;;9.57;;
11618;SDS011;5865;48.776;9.280;2022-09-25T12:42:22;9.13;;;8.10;;
11618;SDS011;5865;48.776;9.280;2022-09-25T12:44:57;11.82;;;8.70;;
11618;SDS011;5865;48.776;9.280;2022-09-25T12:47:30;11.80;;;8.35;;
11618;SDS011;5865;48.776;9.280;2022-09-25T12:50:02;9.23;;;7.78;;
11618;SDS011;5865;48.776;9.280;2022-09-25T12:52:34;10.70;;;8.35;;
11618;SDS011;5865;48.776;9.280;2022-09-25T12:55:07;8.45;;;7.50;;
11618;SDS011;5865;48.776;9.280;2022-09-25T12:57:39;9.48;;;8.23;;
11618;SDS011;5865;48.776;9.280;2022-09-25T13:00:14;10.85;;;9.10;;
11618;SDS011;5865;48.776;9.280;2022-09-25T13:02:45;10.05;;;8.95;;
11618;SDS011;5865;48.776;9.280;2022-09-25T13:05:22;11.93;;;9.27;;
11618;SDS011;5865;48.776;9.280;2022-09-25T13:07:56;10.00;;;8.68;;
11618;SDS011;5865;48.776;9.280;2022-09-25T13:10:28;11.18;;;8.63;;
11618;SDS011;5865;48.776;9.280;2022-09-25T13:13:08;11.65;;;9.32;;
11618;SDS011;5865;48.776;9.280;2022-09-25T13:15:43;10.80;;;8.77;;
11618;SDS011;5865;48.776;9.280;2022-09-25T13:18:14;11.80;;;9.02;;
11618;SDS011;5865;48.776;9.280;2022-09-25T13:20:46;11.60;;;8.70;;
11618;SDS011;5865;48.776;9.280;2022-09-25T13:23:23;9.05;;;8.02;;
11618;SDS011;5865;48.776;9.280;2022-09-25T13:25:54;9.60;;;8.20;;
11618;SDS011;5865;48.776;9.280;2022-09-25T13:28:36;10.00;;;8.18;;
11618;SDS011;5865;48.776;9.280;2022-09-25T13:31:06;8.25;;;7.40;;
11618;SDS011;5865;48.776;9.280;2022-09-25T13:33:40;7.35;;;6.55;;
11618;SDS011;5865;48.776;9.280;2022-09-25T13:36:26;7.72;;;6.93;;
11618;SDS011;5865;48.776;9.280;2022-09-25T13:38:58;7.80;;;6.90;;
11618;SDS011;5865;48.776;9.280;2022-09-25T13:41:47;6.88;;;6.15;;
11618;SDS011;5865;48.776;9.280;2022-09-25T13:50:23;6.30;;;5.70;;
11618;SDS011;5865;48.776;9.280;2022-09-25T13:58:58;6.45;;;5.47;;
11618;SDS011;5865;48.776;9.280;2022-09-25T14:01:32;7.53;;;5.63;;
11618;SDS011;5865;48.776;9.280;2022-09-25T14:04:06;6.68;;;5.93;;
11618;SDS011;5865;48.776;9.280;2022-09-25T14:06:35;8.93;;;5.80;;
11618;SDS011;5865;48.776;9.280;2022-09-25T14:09:05;7.70;;;6.32;;
11618;SDS011;5865;48.776;9.280;2022-09-25T14:11:34;6.95;;;5.60;;
11618;SDS011;5865;48.776;9.280;2022-09-25T14:14:05;7.25;;;6.28;;
11618;SDS011;5865;48.776;9.280;2022-09-25T14:16:39;6.18;;;5.57;;
11618;SDS011;5865;48.776;9.280;2022-09-25T14:19:15;6.32;;;5.68;;
11618;SDS011;5865;48.776;9.280;2022-09-25T14:21:45;6.03;;;5.25;;
11618;SDS011;5865;48.776;9.280;2022-09-25T14:24:17;6.32;;;5.57;;
11618;SDS011;5865;48.776;9.280;2022-09-25T14:26:45;6.22;;;5.00;;
11618;SDS011;5865;48.776;9.280;2022-09-25T14:29:17;6.63;;;6.03;;
11618;SDS011;5865;48.776;9.280;2022-09-25T14:31:49;6.28;;;5.60;;
11618;SDS011;5865;48.776;9.280;2022-09-25T14:34:28;6.22;;;5.00;;
11618;SDS011;5865;48.776;9.280;2022-09-25T14:37:17;6.20;;;5.40;;
11618;SDS011;5865;48.776;9.280;2022-09-25T14:39:56;5.30;;;4.80;;
11618;SDS011;5865;48.776;9.280;2022-09-25T14:42:36;5.80;;;5.28;;
11618;SDS011;5865;48.776;9.280;2022-09-25T14:45:22;5.47;;;4.82;;
11618;SDS011;5865;48.776;9.280;2022-09-25T14:48:12;4.90;;;4.40;;
11618;SDS011;5865;48.776;9.280;2022-09-25T14:50:42;5.00;;;4.55;;
11618;SDS011;5865;48.776;9.280;2022-09-25T14:53:13;4.95;;;4.25;;
11618;SDS011;5865;48.776;9.280;2022-09-25T14:55:50;4.63;;;3.95;;
11618;SDS011;5865;48.776;9.280;2022-09-25T14:58:18;4.60;;;4.18;;
11618;SDS011;5865;48.776;9.280;2022-09-25T15:00:51;5.63;;;4.00;;
11618;SDS011;5865;48.776;9.280;2022-09-25T15:03:22;4.50;;;4.10;;
11618;SDS011;5865;48.776;9.280;2022-09-25T15:05:57;3.88;;;3.42;;
11618;SDS011;5865;48.776;9.280;2022-09-25T15:08:30;3.70;;;3.40;;
11618;SDS011;5865;48.776;9.280;2022-09-25T15:11:03;4.22;;;3.45;;
11618;SDS011;5865;48.776;9.280;2022-09-25T15:13:36;4.15;;;3.55;;
11618;SDS011;5865;48.776;9.280;2022-09-25T15:16:04;3.65;;;3.35;;
11618;SDS011;5865;48.776;9.280;2022-09-25T15:18:53;4.13;;;3.45;;
11618;SDS011;5865;48.776;9.280;2022-09-25T15:21:24;4.35;;;3.55;;
11618;SDS011;5865;48.776;9.280;2022-09-25T15:23:55;5.22;;;4.22;;
11618;SDS011;5865;48.776;9.280;2022-09-25T15:26:25;4.30;;;3.90;;
11618;SDS011;5865;48.776;9.280;2022-09-25T15:28:53;4.45;;;4.07;;
11618;SDS011;5865;48.776;9.280;2022-09-25T15:31:21;5.40;;;4.10;;